FALE Airport Information

Runway Information
Runway 06 Length 12139 ft width 197 ft
Elevation 304 ft Threshold 0 ft Heading 61
Runway 24 Length 12139 ft Width 197 ft
Elevation 304 ft Threshold 0 ft Heading 241
Airport Frequencies
Type DURBAN App Name Frequency 125.75 MHZ
Type KING SHAKA Name Frequency 127 MHZ
Type KING SHAKA Name KING SHAKA Frequency 118.45 MHZ
Type KING SHAKA Name Frequency 121.65 MHZ
Type VOT TGV Name Frequency 115.6 MHZ
Airport Navaids
Airport Weather Information & NOTAM
ADDS - METARS form results

(0532 UTC 18 August 2019)
Data provider http://aviationweather.gov/metar/data/
 
METAR text: FALE 180513Z 02008KT 8000 FEW003 15/15 Q1025 NOSIG
Conditions at: FALE (DURBAN SHAKA , ZA) observed 0513 UTC 18 August 2019
Temperature: 15.0°C (59°F)
Dewpoint: 15.0°C (59°F) [RH = 100%]
Pressure (altimeter): 30.27 inches Hg (1025.0 mb)
Winds: from the NNE (20 degrees) at 9 MPH (8 knots; 4.1 m/s)
Visibility: 5 miles ( 8 km)
Ceiling: at least 12,000 feet AGL
Clouds: few clouds at 300 feet AGL
Weather: no significant weather observed at this time

METAR text: FALE 180500Z 01008KT 3500 BR SCT003 15/14 Q1026 TEMPO 2000
Conditions at: FALE (DURBAN SHAKA , ZA) observed 0500 UTC 18 August 2019
Temperature: 15.0°C (59°F)
Dewpoint: 14.0°C (57°F) [RH = 94%]
Pressure (altimeter): 30.30 inches Hg (1026.0 mb)
Winds: from the N (10 degrees) at 9 MPH (8 knots; 4.1 m/s)
Visibility: 2.17 miles (3.49 km)
Ceiling: at least 12,000 feet AGL
Clouds: scattered clouds at 300 feet AGL
Weather: BR  (mist)

METAR text: FALE 180455Z 01008KT 3500 BR SCT003 15/14 Q1026 TEMPO 2000
Conditions at: FALE (DURBAN SHAKA , ZA) observed 0455 UTC 18 August 2019
Temperature: 15.0°C (59°F)
Dewpoint: 14.0°C (57°F) [RH = 94%]
Pressure (altimeter): 30.30 inches Hg (1026.0 mb)
Winds: from the N (10 degrees) at 9 MPH (8 knots; 4.1 m/s)
Visibility: 2.17 miles (3.49 km)
Ceiling: at least 12,000 feet AGL
Clouds: scattered clouds at 300 feet AGL
Weather: BR  (mist)

METAR text: FALE 180442Z 01008KT 3500 BR BKN003 15/14 Q1026 TEMPO 2000
Conditions at: FALE (DURBAN SHAKA , ZA) observed 0442 UTC 18 August 2019
Temperature: 15.0°C (59°F)
Dewpoint: 14.0°C (57°F) [RH = 94%]
Pressure (altimeter): 30.30 inches Hg (1026.0 mb)
Winds: from the N (10 degrees) at 9 MPH (8 knots; 4.1 m/s)
Visibility: 2.17 miles (3.49 km)
Ceiling: 300 feet AGL
Clouds: broken clouds at 300 feet AGL
Weather: BR  (mist)

Forecast for: FALE (DURBAN SHAKA , ZA)
Text: TAF FALE 180400Z 1806/1912 02015KT 9999 BKN030 TX23/1812Z TN14/1904Z
Forecast period: 0600 to 1000 UTC 18 August 2019
Forecast type: FROM: standard forecast or significant change
Winds: from the NNE (20 degrees) at 17 MPH (15 knots; 7.7 m/s)
Visibility: 6 or more miles 10+ km)
Ceiling: 3000 feet AGL
Clouds: broken clouds at 3000 feet AGL
Weather: no significant weather forecast for this period
Text: FM181000 04018G28KT 9999 SCT030
Forecast period: 1000 UTC 18 August 2019 to 0000 UTC 19 August 2019
Forecast type: FROM: standard forecast or significant change
Winds: from the NE (40 degrees) at 21 MPH (18 knots; 9.3 m/s)
gusting to 32 MPH (28 knots; 14.4 m/s)
Visibility: 6 or more miles 10+ km)
Ceiling: at least 12,000 feet AGL
Clouds: scattered clouds at 3000 feet AGL
Weather: no significant weather forecast for this period
Text: BECMG 1900/1902 34005KT CAVOK
Forecast period: 0000 to 0800 UTC 19 August 2019
Forecast type: BECOMING: Conditions expected to become as follows by 0200 UTC 19 August 2019
Winds: from the NNW (340 degrees) at 6 MPH (5 knots; 2.6 m/s)
Visibility: 6 or more miles 10+ km)
Ceiling: unknown
Clouds: missing
Weather: NSW  (no significant weather)
Text: BECMG 1908/1910 20018G28KT
Forecast period: 0800 to 1200 UTC 19 August 2019
Forecast type: BECOMING: Conditions expected to become as follows by 1000 UTC 19 August 2019
Winds: from the SSW (200 degrees) at 21 MPH (18 knots; 9.3 m/s)
gusting to 32 MPH (28 knots; 14.4 m/s)
Visibility: 6 or more miles 10+ km)
Ceiling: unknown
Clouds: missing
Weather: NSW  (no significant weather)